Time;durP1;ratioP1;P1;durP2;ratioP2;P2;SDS_P1;SDS_P2;PMS_P1;PMS_P2;Temp;Humidity;BMP_temperature;BMP_pressure;BME280_temperature;BME280_humidity;BME280_pressure;Samples;Min_cycle;Max_cycle;Signal;HPM_P1;HPM_P2
2023/09/04 00:01:35;;;;;;;7.03;6.38;;;;;;;18.78;100.00;99239.66;5089712;28;20036;-84
2023/09/04 00:04:03;;;;;;;19.20;6.10;;;;;;;19.01;100.00;99264.09;5087097;28;20492;-85
2023/09/04 00:06:29;;;;;;;14.60;6.10;;;;;;;18.78;100.00;99248.16;5072725;28;20021;-84
2023/09/04 00:08:57;;;;;;;7.43;6.63;;;;;;;18.80;100.00;99251.41;5072298;28;20349;-85
2023/09/04 00:11:24;;;;;;;13.20;6.53;;;;;;;18.91;100.00;99262.78;5089543;28;20051;-84
2023/09/04 00:13:50;;;;;;;10.32;6.10;;;;;;;18.94;100.00;99259.19;5085741;28;20056;-84
2023/09/04 00:16:15;;;;;;;6.90;6.20;;;;;;;18.91;100.00;99259.16;5085925;28;20028;-85
2023/09/04 00:18:41;;;;;;;8.75;6.30;;;;;;;18.83;100.00;99243.31;5080920;28;20039;-85
2023/09/04 00:21:07;;;;;;;5.90;5.30;;;;;;;18.86;100.00;99237.69;5092397;28;20077;-85
2023/09/04 00:23:32;;;;;;;8.60;6.03;;;;;;;18.85;100.00;99253.06;5078677;28;20028;-85
2023/09/04 00:25:58;;;;;;;7.97;6.80;;;;;;;18.85;100.00;99238.06;5074095;28;20390;-85
2023/09/04 00:28:24;;;;;;;7.88;7.07;;;;;;;18.87;100.00;99246.97;5076985;28;20040;-85
2023/09/04 00:30:49;;;;;;;11.45;7.32;;;;;;;18.85;100.00;99244.56;5075801;28;20090;-85
2023/09/04 00:33:15;;;;;;;10.32;6.88;;;;;;;19.02;100.00;99253.56;5080161;28;20024;-85
2023/09/04 00:35:40;;;;;;;9.00;6.55;;;;;;;18.96;100.00;99235.31;5074968;28;20139;-85
2023/09/04 00:38:06;;;;;;;6.57;5.70;;;;;;;19.28;100.00;99237.47;5074178;28;20027;-85
2023/09/04 00:40:31;;;;;;;8.73;5.53;;;;;;;19.47;100.00;99227.78;5092020;28;20043;-85
2023/09/04 00:42:57;;;;;;;10.65;5.88;;;;;;;19.80;99.91;99236.38;5090194;28;20046;-86
2023/09/04 00:45:22;;;;;;;7.25;5.80;;;;;;;19.90;97.05;99227.84;5091259;28;20020;-86
2023/09/04 00:47:48;;;;;;;6.55;5.18;;;;;;;20.08;96.38;99249.75;5086963;28;20114;-86
2023/09/04 00:50:19;;;;;;;8.88;5.35;;;;;;;20.12;95.46;99244.09;5078766;28;20043;-85
2023/09/04 00:52:45;;;;;;;9.80;4.93;;;;;;;20.22;94.14;99245.31;5076899;28;20025;-86
2023/09/04 00:55:11;;;;;;;5.78;5.05;;;;;;;20.16;94.07;99236.41;5073539;28;20033;-86
2023/09/04 00:57:38;;;;;;;7.80;5.38;;;;;;;19.94;94.42;99219.38;5074140;28;20032;-86
2023/09/04 01:00:07;;;;;;;10.73;7.10;;;;;;;19.93;93.88;99231.94;5071336;28;20031;-86
2023/09/04 01:02:34;;;;;;;7.35;5.85;;;;;;;19.87;94.81;99217.31;5069881;28;20028;-87
2023/09/04 01:04:59;;;;;;;6.72;5.93;;;;;;;19.96;95.65;99224.63;5069895;28;20412;-86
2023/09/04 01:07:25;;;;;;;6.90;6.18;;;;;;;19.79;95.90;99224.19;5070015;28;20094;-87
2023/09/04 01:09:50;;;;;;;8.75;5.95;;;;;;;19.75;95.65;99223.38;5070956;28;20067;-87
2023/09/04 01:12:23;;;;;;;9.32;6.82;;;;;;;19.72;95.90;99227.84;5089959;28;20119;-87
2023/09/04 01:14:51;;;;;;;6.03;5.47;;;;;;;19.93;94.81;99231.94;5089402;28;20081;-87
2023/09/04 01:17:17;;;;;;;7.63;5.72;;;;;;;20.11;94.92;99236.78;5090197;28;20028;-87
2023/09/04 01:19:42;;;;;;;6.78;5.50;;;;;;;20.12;92.67;99235.56;5090187;28;20580;-87
2023/09/04 01:22:09;;;;;;;6.15;5.18;;;;;;;20.28;93.14;99253.03;5086446;28;20032;-87
2023/09/04 01:24:36;;;;;;;6.22;5.43;;;;;;;20.41;91.38;99242.03;5069893;28;20020;-87
2023/09/04 01:27:13;;;;;;;7.43;5.50;;;;;;;20.55;90.05;99255.41;5070057;28;20095;-87
2023/09/04 01:30:01;;;;;;;6.90;4.80;;;;;;;20.47;89.13;99256.63;5070136;28;20024;-87
2023/09/04 01:32:39;;;;;;;5.65;5.13;;;;;;;20.46;89.71;99246.50;5073373;28;20477;-87
2023/09/04 01:35:09;;;;;;;7.72;5.70;;;;;;;20.60;88.69;99248.50;5073034;28;20115;-87
2023/09/04 01:37:36;;;;;;;10.00;8.02;;;;;;;20.37;89.48;99240.41;5074996;28;20198;-88
2023/09/04 01:40:04;;;;;;;23.15;20.70;;;;;;;20.26;88.67;99241.22;5082273;28;20079;-88
2023/09/04 01:42:30;;;;;;;51.75;42.95;;;;;;;20.15;90.02;99244.09;5073348;28;20031;-88
2023/09/04 01:44:55;;;;;;;54.15;47.08;;;;;;;19.97;92.22;99232.75;5082779;28;20048;-88
2023/09/04 01:47:21;;;;;;;26.02;21.38;;;;;;;19.77;92.68;99235.94;5077728;28;20514;-88
2023/09/04 01:49:48;;;;;;;15.27;12.05;;;;;;;19.58;93.12;99227.81;5093596;28;20024;-88
2023/09/04 01:52:14;;;;;;;10.50;7.30;;;;;;;19.43;93.81;99221.31;5089758;28;20024;-88
2023/09/04 01:54:40;;;;;;;7.22;6.50;;;;;;;19.50;93.85;99227.00;5072702;28;20036;-88
2023/09/04 01:57:05;;;;;;;6.75;5.63;;;;;;;19.25;92.30;99207.91;5073324;28;20462;-88
2023/09/04 01:59:32;;;;;;;9.95;4.68;;;;;;;19.27;91.77;99211.16;5073279;28;20028;-88
2023/09/04 02:01:58;;;;;;;7.57;5.43;;;;;;;19.25;91.05;99212.75;5073391;28;20057;-88
2023/09/04 02:04:24;;;;;;;6.95;4.82;;;;;;;19.28;91.25;99224.09;5074135;28;20493;-89
2023/09/04 02:06:49;;;;;;;6.70;5.18;;;;;;;19.24;90.68;99216.81;5093360;28;20028;-88
2023/09/04 02:09:15;;;;;;;5.82;4.57;;;;;;;19.17;90.16;99209.09;5093307;28;20472;-88
2023/09/04 02:11:40;;;;;;;6.18;4.10;;;;;;;19.11;89.43;99211.50;5085647;28;20036;-88
2023/09/04 02:14:05;;;;;;;11.60;4.30;;;;;;;19.05;89.67;99207.41;5072963;28;20082;-88
2023/09/04 02:16:31;;;;;;;16.52;4.65;;;;;;;18.98;89.25;99198.88;5072889;28;20448;-89
2023/09/04 02:18:57;;;;;;;7.00;4.50;;;;;;;18.91;89.47;99197.63;5072770;28;20067;-88
2023/09/04 02:21:22;;;;;;;6.07;4.15;;;;;;;18.99;90.02;99200.50;5080859;28;20063;-89
2023/09/04 02:23:47;;;;;;;6.57;4.68;;;;;;;18.92;89.54;99204.91;5072906;28;20054;-88
2023/09/04 02:26:13;;;;;;;8.40;5.03;;;;;;;18.97;89.40;99197.25;5075782;28;20023;-88
2023/09/04 02:28:40;;;;;;;5.60;3.60;;;;;;;18.94;89.97;99196.84;5072742;28;20025;-88
2023/09/04 02:31:08;;;;;;;5.22;4.20;;;;;;;18.92;89.88;99192.78;5072535;28;20028;-88
2023/09/04 02:33:35;;;;;;;5.20;4.15;;;;;;;18.86;89.88;99188.69;5072624;28;20032;-87
2023/09/04 02:36:00;;;;;;;5.22;4.50;;;;;;;18.90;90.19;99198.84;5072254;28;20052;-88
2023/09/04 02:38:26;;;;;;;7.75;3.97;;;;;;;18.91;89.61;99196.81;5072731;28;20020;-88
2023/09/04 02:40:51;;;;;;;3.78;3.47;;;;;;;18.90;89.01;99193.16;5079513;28;20024;-88
2023/09/04 02:43:17;;;;;;;3.88;3.40;;;;;;;18.96;89.47;99207.75;5071741;28;20492;-87
2023/09/04 02:45:42;;;;;;;5.25;4.20;;;;;;;18.92;90.64;99193.56;5073547;28;20060;-88
2023/09/04 02:48:08;;;;;;;4.55;4.15;;;;;;;18.83;89.73;99184.66;5072378;28;20025;-88
2023/09/04 02:50:34;;;;;;;5.47;4.15;;;;;;;18.86;89.84;99189.53;5072336;28;20542;-88
2023/09/04 02:52:59;;;;;;;5.43;4.15;;;;;;;18.96;90.09;99198.47;5080484;28;20556;-88
2023/09/04 02:55:25;;;;;;;7.72;4.53;;;;;;;18.94;89.22;99202.50;5089591;28;20053;-88
2023/09/04 02:57:50;;;;;;;5.75;3.33;;;;;;;18.89;88.77;99194.38;5072173;28;20064;-88
2023/09/04 03:00:16;;;;;;;6.57;3.63;;;;;;;18.97;88.33;99197.25;5076147;28;20059;-88
2023/09/04 03:02:42;;;;;;;4.15;3.63;;;;;;;18.83;87.57;99178.16;5072118;28;20116;-88
2023/09/04 03:05:08;;;;;;;5.25;3.88;;;;;;;18.92;87.75;99176.56;5072128;28;20074;-89
2023/09/04 03:07:36;;;;;;;5.13;3.42;;;;;;;18.79;86.82;99161.97;5063386;28;20138;-88
2023/09/04 03:10:01;;;;;;;3.58;3.28;;;;;;;18.80;87.04;99152.25;5091989;28;20036;-89
2023/09/04 03:12:30;;;;;;;4.47;3.70;;;;;;;18.79;86.97;99161.16;5091833;28;20447;-89
2023/09/04 03:15:00;;;;;;;4.25;3.85;;;;;;;18.89;87.38;99165.25;5092086;28;20035;-89
2023/09/04 03:17:27;;;;;;;4.43;3.40;;;;;;;18.89;88.23;99173.75;5088268;28;20563;-88
2023/09/04 03:19:55;;;;;;;4.70;4.05;;;;;;;18.83;88.06;99158.34;5071950;28;20064;-89
2023/09/04 03:22:22;;;;;;;4.85;3.67;;;;;;;18.96;88.32;99173.75;5076398;28;20028;-89
2023/09/04 03:24:48;;;;;;;5.72;4.10;;;;;;;18.92;87.39;99167.28;5085893;28;20024;-89
2023/09/04 03:27:13;;;;;;;3.95;3.50;;;;;;;18.77;87.36;99144.56;5071722;28;20123;-89
2023/09/04 03:29:39;;;;;;;4.15;3.75;;;;;;;19.00;87.94;99173.81;5071762;28;20489;-88
2023/09/04 03:32:05;;;;;;;5.72;3.92;;;;;;;18.96;86.49;99175.78;5071512;28;20074;-88
2023/09/04 03:34:31;;;;;;;7.90;3.92;;;;;;;18.84;86.91;99168.44;5074392;28;20035;-89
2023/09/04 03:36:57;;;;;;;6.60;4.45;;;;;;;18.80;87.18;99172.09;5072606;28;20049;-88
2023/09/04 03:39:22;;;;;;;4.97;4.13;;;;;;;18.77;88.23;99169.22;5071702;28;20417;-89
2023/09/04 03:41:48;;;;;;;3.78;3.47;;;;;;;18.66;87.80;99174.88;5071301;28;20031;-88
2023/09/04 03:44:14;;;;;;;5.47;4.72;;;;;;;18.74;87.87;99176.50;5071497;28;20089;-89
2023/09/04 03:46:40;;;;;;;5.38;3.90;;;;;;;18.74;88.44;99198.38;5076890;28;20035;-88
2023/09/04 03:49:06;;;;;;;7.60;4.07;;;;;;;18.71;88.51;99193.50;5077947;28;20024;-89
2023/09/04 03:51:32;;;;;;;5.45;3.50;;;;;;;18.76;89.35;99201.59;5091578;28;20012;-88
2023/09/04 03:54:01;;;;;;;8.73;3.88;;;;;;;18.70;88.71;99203.19;5090745;28;20101;-88
2023/09/04 03:56:28;;;;;;;7.13;4.40;;;;;;;18.72;89.01;99209.28;5091481;28;20496;-89
2023/09/04 03:58:54;;;;;;;5.15;3.67;;;;;;;18.58;89.92;99196.69;5091408;28;20020;-89
2023/09/04 04:01:19;;;;;;;4.22;3.72;;;;;;;18.68;90.32;99209.25;5083605;28;20078;-90
2023/09/04 04:03:44;;;;;;;4.20;3.72;;;;;;;18.74;90.12;99210.50;5076497;28;20025;-90
2023/09/04 04:06:13;;;;;;;5.38;3.75;;;;;;;18.91;89.74;99191.16;5084848;28;20638;-93
2023/09/04 04:08:38;;;;;;;6.47;3.67;;;;;;;18.73;89.63;99206.03;5072714;28;20133;-91
2023/09/04 04:11:04;;;;;;;5.20;4.03;;;;;;;18.62;89.77;99208.00;5071209;28;20500;-92
2023/09/04 04:13:29;;;;;;;5.78;3.95;;;;;;;18.49;89.52;99196.22;5071558;28;20024;-93
2023/09/04 04:16:02;;;;;;;3.65;3.35;;;;;;;18.54;89.22;99203.53;5081330;28;20020;-93
2023/09/04 04:18:29;;;;;;;6.65;4.20;;;;;;;18.48;89.08;99203.09;5088461;28;20036;-93
2023/09/04 04:20:55;;;;;;;7.05;4.10;;;;;;;18.51;88.01;99210.78;5086503;28;20496;-93
2023/09/04 04:23:21;;;;;;;6.13;3.67;;;;;;;18.53;87.04;99216.88;5086141;28;20115;-92
2023/09/04 04:25:50;;;;;;;6.93;3.85;;;;;;;18.64;87.87;99222.56;5072349;28;20116;-93
2023/09/04 04:28:20;;;;;;;4.80;3.37;;;;;;;18.54;88.49;99229.00;5071358;28;20458;-93
2023/09/04 04:30:46;;;;;;;5.63;3.80;;;;;;;18.53;87.59;99239.50;5071643;28;20525;-92
2023/09/04 04:33:12;;;;;;;4.38;3.83;;;;;;;18.56;89.02;99237.94;5071493;28;20031;-93
2023/09/04 04:35:41;;;;;;;4.82;3.95;;;;;;;18.58;88.72;99242.00;5070758;28;20420;-92
2023/09/04 04:38:07;;;;;;;4.78;3.25;;;;;;;18.61;88.76;99243.19;5071486;28;20404;-93
2023/09/04 04:40:37;;;;;;;4.50;4.10;;;;;;;18.57;88.61;99248.84;5080934;28;20024;-92
2023/09/04 04:43:03;;;;;;;6.30;3.40;;;;;;;18.52;88.34;99250.06;5071118;28;20031;-93
2023/09/04 04:45:29;;;;;;;4.50;3.25;;;;;;;18.67;88.27;99253.75;5070523;28;20020;-92
2023/09/04 04:47:55;;;;;;;4.82;3.80;;;;;;;18.75;87.94;99250.97;5071082;28;20028;-92
2023/09/04 04:50:21;;;;;;;6.70;3.67;;;;;;;18.65;88.50;99253.34;5078464;28;20027;-92
2023/09/04 04:52:46;;;;;;;6.88;4.30;;;;;;;18.72;88.29;99257.44;5076261;28;20463;-93
2023/09/04 04:55:12;;;;;;;8.88;4.78;;;;;;;19.09;89.49;99262.09;5071107;28;20036;-93
2023/09/04 04:57:37;;;;;;;4.53;4.13;;;;;;;19.06;90.02;99268.53;5069838;28;20501;-93
2023/09/04 05:00:07;;;;;;;5.80;4.97;;;;;;;19.17;89.87;99243.91;5071180;28;20031;-93
2023/09/04 05:02:36;;;;;;;18.33;6.82;;;;;;;19.48;89.74;99271.94;5087049;28;20118;-92
2023/09/04 05:05:03;;;;;;;7.27;4.57;;;;;;;19.56;89.66;99253.75;5090398;28;20047;-93
2023/09/04 05:07:29;;;;;;;11.20;4.55;;;;;;;19.78;89.17;99277.28;5086206;28;20039;-93
2023/09/04 05:09:56;;;;;;;7.00;5.00;;;;;;;19.82;89.17;99270.81;5089326;28;20114;-92
2023/09/04 05:12:22;;;;;;;6.30;4.22;;;;;;;19.97;88.35;99278.16;5096078;28;20028;-92
2023/09/04 05:14:47;;;;;;;16.02;4.97;;;;;;;19.98;86.94;99276.94;5095061;28;20116;-92
2023/09/04 05:17:13;;;;;;;9.43;4.53;;;;;;;20.03;86.39;99276.56;5094899;28;20020;-92
2023/09/04 05:19:38;;;;;;;6.35;3.97;;;;;;;19.95;85.81;99272.06;5094758;28;20028;-93
2023/09/04 05:22:04;;;;;;;6.22;3.60;;;;;;;19.90;85.56;99278.09;5091130;28;20067;-94
2023/09/04 05:24:30;;;;;;;10.57;3.75;;;;;;;19.77;85.91;99263.50;5074144;28;20512;-92
2023/09/04 05:26:55;;;;;;;8.50;4.30;;;;;;;19.84;86.76;99269.19;5089697;28;20023;-94
2023/09/04 05:29:21;;;;;;;6.22;4.00;;;;;;;19.71;88.13;99271.59;5081309;28;20023;-93
2023/09/04 05:31:50;;;;;;;4.57;3.90;;;;;;;19.63;87.63;99248.09;5079684;28;20070;-93
2023/09/04 05:34:16;;;;;;;7.32;4.45;;;;;;;19.79;88.11;99275.25;5078102;28;20080;-94
2023/09/04 05:36:41;;;;;;;11.80;4.20;;;;;;;19.79;88.55;99266.75;5073606;28;20040;-93
2023/09/04 05:39:08;;;;;;;9.07;4.30;;;;;;;19.82;88.27;99256.63;5073852;28;20028;-92
2023/09/04 05:41:34;;;;;;;4.55;3.97;;;;;;;19.70;89.29;99252.13;5090590;28;20107;-94
2023/09/04 05:43:59;;;;;;;6.03;3.90;;;;;;;19.57;90.71;99257.41;5082501;28;20058;-93
2023/09/04 05:46:26;;;;;;;6.50;3.80;;;;;;;19.62;90.92;99257.81;5079921;28;20069;-95
2023/09/04 05:48:51;;;;;;;7.75;4.43;;;;;;;19.39;91.26;99238.31;5074845;28;20104;-94
2023/09/04 05:51:17;;;;;;;7.85;4.40;;;;;;;19.45;91.79;99256.56;5081496;28;20107;-95
2023/09/04 05:53:42;;;;;;;6.07;3.50;;;;;;;19.27;92.27;99252.84;5090901;28;20028;-93
2023/09/04 05:56:10;;;;;;;7.00;4.18;;;;;;;19.40;92.76;99256.94;5074455;28;20032;-95
2023/09/04 05:58:44;;;;;;;9.10;4.03;;;;;;;19.42;94.04;99243.16;5082449;28;20025;-93
2023/09/04 06:01:11;;;;;;;5.70;3.47;;;;;;;19.36;93.61;99237.06;5082376;28;20027;-96
2023/09/04 06:03:37;;;;;;;4.60;3.67;;;;;;;19.35;92.72;99243.16;5076031;28;20031;-96
2023/09/04 06:06:02;;;;;;;4.95;3.53;;;;;;;19.33;91.49;99251.25;5077675;28;20016;-94
2023/09/04 06:08:30;;;;;;;5.95;2.95;;;;;;;19.06;92.52;99248.72;5092625;28;20035;-92
2023/09/04 06:10:56;;;;;;;4.22;2.88;;;;;;;19.15;92.85;99257.66;5086738;28;20016;-94
2023/09/04 06:13:21;;;;;;;5.22;3.33;;;;;;;19.17;92.63;99241.06;5081526;28;20035;-92
2023/09/04 06:15:50;;;;;;;4.57;3.13;;;;;;;19.03;93.96;99252.34;5079551;28;20028;-92
2023/09/04 06:18:16;;;;;;;9.80;4.30;;;;;;;19.18;94.50;99261.72;5081130;28;20111;-91
2023/09/04 06:20:41;;;;;;;6.35;3.03;;;;;;;19.24;93.99;99276.34;5083490;28;21071;-92
2023/09/04 06:23:07;;;;;;;6.28;3.08;;;;;;;19.03;93.44;99249.50;5077887;28;20085;-91
2023/09/04 06:25:38;;;;;;;3.83;3.13;;;;;;;19.37;93.16;99271.91;5079361;28;20024;-90
2023/09/04 06:28:05;;;;;;;6.75;3.60;;;;;;;19.38;93.02;99270.72;5074195;28;20021;-91
2023/09/04 06:30:30;;;;;;;4.60;2.97;;;;;;;19.36;93.15;99267.47;5076528;28;20046;-91
2023/09/04 06:32:56;;;;;;;5.75;2.78;;;;;;;19.44;93.41;99277.63;5093841;28;20024;-91
2023/09/04 06:35:22;;;;;;;5.97;2.92;;;;;;;19.41;93.22;99281.25;5084847;28;20017;-90
2023/09/04 06:37:47;;;;;;;8.45;3.63;;;;;;;19.57;93.03;99289.41;5082667;28;20443;-92
2023/09/04 06:40:13;;;;;;;8.25;3.70;;;;;;;19.59;93.30;99292.63;5079266;28;20024;-94
2023/09/04 06:42:39;;;;;;;9.25;5.00;;;;;;;19.61;93.22;99295.09;5082028;28;20117;-94
2023/09/04 06:45:05;;;;;;;7.75;4.40;;;;;;;19.46;94.75;99306.41;5098869;28;20019;-93
2023/09/04 06:47:31;;;;;;;10.20;6.32;;;;;;;19.48;94.81;99309.63;5086511;28;20051;-95
2023/09/04 06:49:57;;;;;;;7.63;5.13;;;;;;;19.29;95.56;99278.78;5092402;28;20028;-95
2023/09/04 06:52:22;;;;;;;5.65;3.85;;;;;;;19.49;96.31;99304.78;5083286;28;20027;-91
2023/09/04 06:54:47;;;;;;;5.18;3.17;;;;;;;19.34;97.03;99299.03;5088516;28;20403;-92
2023/09/04 06:57:13;;;;;;;6.28;4.03;;;;;;;19.29;95.53;99292.94;5077430;28;20028;-94
2023/09/04 06:59:38;;;;;;;8.45;3.97;;;;;;;19.28;95.64;99280.81;5084697;28;20124;-93
2023/09/04 07:02:04;;;;;;;5.70;3.80;;;;;;;19.40;95.36;99305.16;5079344;28;20035;-91
2023/09/04 07:04:29;;;;;;;6.10;3.05;;;;;;;19.44;95.75;99317.34;5077021;28;20027;-91
2023/09/04 07:06:55;;;;;;;4.43;4.03;;;;;;;19.46;95.84;99314.06;5075919;28;20477;-91
2023/09/04 07:09:20;;;;;;;5.38;3.55;;;;;;;19.42;96.05;99325.41;5075721;28;20121;-92
2023/09/04 07:11:46;;;;;;;7.45;4.50;;;;;;;19.52;96.39;99325.84;5098212;28;20080;-91
2023/09/04 07:14:11;;;;;;;10.93;4.15;;;;;;;19.51;96.98;99325.06;5086444;28;20016;-94
2023/09/04 07:16:38;;;;;;;9.35;4.50;;;;;;;19.30;98.80;99328.59;5085059;28;20108;-92
2023/09/04 07:19:04;;;;;;;6.97;5.22;;;;;;;19.27;100.00;99326.56;5094323;28;20020;-91
2023/09/04 07:21:29;;;;;;;12.65;5.45;;;;;;;19.31;100.00;99322.53;5090420;28;20479;-91
2023/09/04 07:23:55;;;;;;;10.18;5.72;;;;;;;19.43;99.49;99329.88;5091892;28;20096;-91
2023/09/04 07:26:20;;;;;;;10.35;6.05;;;;;;;19.52;99.34;99325.84;5080459;28;20466;-91
2023/09/04 07:28:46;;;;;;;11.77;6.07;;;;;;;19.61;98.60;99329.94;5075709;28;20023;-91
2023/09/04 07:31:19;;;;;;;8.70;5.85;;;;;;;19.66;97.92;99330.75;5074902;28;20049;-90
2023/09/04 07:33:49;;;;;;;10.02;5.85;;;;;;;19.60;98.87;99338.84;5075843;28;20032;-90
2023/09/04 07:36:15;;;;;;;8.50;6.75;;;;;;;19.80;98.79;99327.97;5082277;28;20040;-89
2023/09/04 07:38:42;;;;;;;7.38;6.57;;;;;;;19.56;99.79;99347.34;5077250;28;20058;-88
2023/09/04 07:41:08;;;;;;;16.40;8.15;;;;;;;19.70;100.00;99337.25;5077444;28;20035;-91
2023/09/04 07:43:33;;;;;;;10.07;7.07;;;;;;;19.78;100.00;99331.19;5102988;28;20415;-91
2023/09/04 07:46:02;;;;;;;15.63;6.93;;;;;;;19.71;100.00;99319.00;5093357;28;20034;-91
2023/09/04 07:48:28;;;;;;;8.25;6.60;;;;;;;19.70;100.00;99326.72;5082103;28;20106;-90
2023/09/04 07:50:54;;;;;;;10.50;6.05;;;;;;;19.68;100.00;99334.00;5088771;28;20023;-91
2023/09/04 07:53:21;;;;;;;12.60;5.97;;;;;;;19.71;100.00;99333.19;5078930;28;20016;-92
2023/09/04 07:55:47;;;;;;;8.02;6.57;;;;;;;19.69;100.00;99335.63;5083207;28;20066;-89
2023/09/04 07:58:13;;;;;;;7.05;5.80;;;;;;;19.76;100.00;99344.97;5082460;28;20114;-91
2023/09/04 08:00:47;;;;;;;6.88;5.68;;;;;;;19.83;100.00;99332.03;5087141;28;20024;-92
2023/09/04 08:03:13;;;;;;;5.15;4.40;;;;;;;19.80;100.00;99342.16;5083085;28;20020;-89
2023/09/04 08:05:39;;;;;;;5.88;4.47;;;;;;;19.72;98.10;99341.31;5091378;28;20031;-89
2023/09/04 08:08:09;;;;;;;4.03;3.63;;;;;;;19.82;96.77;99341.75;5075815;28;20034;-89
2023/09/04 08:10:45;;;;;;;6.38;3.92;;;;;;;19.69;97.00;99359.16;5089804;28;20083;-91
2023/09/04 08:13:13;;;;;;;4.70;4.07;;;;;;;19.71;95.29;99353.88;5084260;28;20056;-89
2023/09/04 08:15:39;;;;;;;4.13;3.63;;;;;;;19.77;95.31;99355.09;5075989;28;20023;-92
2023/09/04 08:18:06;;;;;;;4.20;3.80;;;;;;;19.62;95.78;99357.09;5079156;28;20030;-86
2023/09/04 08:20:32;;;;;;;3.83;3.30;;;;;;;19.65;94.19;99358.31;5104448;28;20104;-89
2023/09/04 08:22:57;;;;;;;10.65;3.33;;;;;;;19.66;96.02;99359.13;5094422;28;20023;-89
2023/09/04 08:25:23;;;;;;;6.38;4.25;;;;;;;19.60;96.63;99358.72;5104904;28;20039;-82
2023/09/04 08:27:48;;;;;;;7.68;4.30;;;;;;;19.74;97.56;99363.63;5080622;28;20756;-82
2023/09/04 08:30:14;;;;;;;7.30;4.47;;;;;;;19.80;97.43;99353.50;5077320;28;20496;-82
2023/09/04 08:32:39;;;;;;;6.88;4.25;;;;;;;19.72;97.61;99351.84;5075703;28;20100;-81
2023/09/04 08:35:05;;;;;;;8.15;4.70;;;;;;;19.85;96.42;99353.13;5074496;28;20047;-83
2023/09/04 08:37:31;;;;;;;7.70;4.70;;;;;;;19.76;96.29;99355.53;5085357;28;20047;-83
2023/09/04 08:39:56;;;;;;;10.75;4.57;;;;;;;19.47;92.18;99356.22;5108879;28;20023;-83
2023/09/04 08:42:23;;;;;;;11.02;5.45;;;;;;;19.28;94.17;99359.38;5084604;28;20085;-82
2023/09/04 08:44:52;;;;;;;7.00;5.28;;;;;;;18.94;93.41;99361.19;5076310;28;20460;-82
2023/09/04 08:47:21;;;;;;;5.20;4.60;;;;;;;18.50;93.34;99350.75;5083086;28;20115;-82
2023/09/04 08:49:46;;;;;;;5.63;4.80;;;;;;;18.32;94.02;99359.09;5073470;28;20545;-82
2023/09/04 08:52:13;;;;;;;7.65;5.00;;;;;;;18.20;97.36;99348.88;5074904;28;20024;-82
2023/09/04 08:54:40;;;;;;;6.03;5.22;;;;;;;17.99;97.49;99338.13;5082813;28;20503;-82
2023/09/04 08:57:05;;;;;;;8.82;5.57;;;;;;;17.96;100.00;99343.38;5075011;28;20039;-82
2023/09/04 08:59:31;;;;;;;14.18;6.22;;;;;;;17.83;100.00;99340.00;5074018;28;20025;-83
2023/09/04 09:02:00;;;;;;;5.78;5.18;;;;;;;17.81;100.00;99359.38;5081929;28;20089;-83
2023/09/04 09:04:26;;;;;;;5.93;5.30;;;;;;;17.60;100.00;99351.47;5074650;28;20036;-83
2023/09/04 09:06:53;;;;;;;10.70;5.28;;;;;;;17.54;100.00;99359.47;5082676;28;20032;-82
2023/09/04 09:09:22;;;;;;;6.40;5.22;;;;;;;17.68;100.00;99360.84;5077443;28;20038;-82
2023/09/04 09:11:53;;;;;;;6.13;5.53;;;;;;;17.64;100.00;99349.47;5079606;28;20044;-82
2023/09/04 09:14:27;;;;;;;6.35;5.75;;;;;;;17.74;100.00;99352.81;5084989;28;20119;-83
2023/09/04 09:17:19;;;;;;;6.75;5.60;;;;;;;17.76;100.00;99354.06;5101179;28;20028;-83
2023/09/04 09:19:44;;;;;;;7.50;5.57;;;;;;;17.72;100.00;99358.84;5071880;28;20040;-83
2023/09/04 09:22:14;;;;;;;8.10;6.43;;;;;;;17.63;100.00;99355.53;5080446;28;20039;-83
2023/09/04 09:24:53;;;;;;;;;;;;;;;17.68;100.00;99355.19;5075445;28;20480;-83
2023/09/04 09:27:21;;;;;;;6.72;6.03;;;;;;;17.49;100.00;99370.31;5080843;27;19926;-82
2023/09/04 09:29:47;;;;;;;9.02;6.78;;;;;;;17.38;100.00;99368.16;5075568;28;20031;-83
2023/09/04 09:32:15;;;;;;;7.13;5.95;;;;;;;17.43;100.00;99358.53;5101279;27;20016;-83
2023/09/04 09:34:40;;;;;;;8.20;5.35;;;;;;;17.44;100.00;99373.50;5076792;27;20777;-83
2023/09/04 09:37:08;;;;;;;7.43;5.47;;;;;;;17.33;100.00;99376.16;5073963;28;20052;-83
2023/09/04 09:39:34;;;;;;;6.57;5.00;;;;;;;17.20;100.00;99362.25;5072508;28;20020;-83
2023/09/04 09:42:00;;;;;;;5.75;4.80;;;;;;;17.17;100.00;99382.81;5073296;28;20032;-82
2023/09/04 09:44:32;;;;;;;8.00;6.45;;;;;;;17.07;100.00;99372.19;5074686;28;20040;-82
2023/09/04 09:46:58;;;;;;;8.63;7.15;;;;;;;17.11;100.00;99371.03;5085458;28;20062;-83
2023/09/04 09:49:23;;;;;;;9.30;6.20;;;;;;;17.14;100.00;99377.94;5087129;28;20055;-83
2023/09/04 09:51:54;;;;;;;9.40;6.18;;;;;;;17.14;100.00;99380.75;5076129;28;20028;-82
2023/09/04 09:54:40;;;;;;;9.40;6.25;;;;;;;17.00;100.00;99372.06;5083363;28;20032;-83
2023/09/04 09:57:08;;;;;;;16.42;7.38;;;;;;;17.06;100.00;99379.81;5073362;28;20509;-82
2023/09/04 09:59:36;;;;;;;9.25;6.78;;;;;;;17.21;100.00;99368.75;5080316;28;20042;-83
2023/09/04 10:02:03;;;;;;;12.05;7.50;;;;;;;17.23;100.00;99372.00;5087030;28;20040;-84
2023/09/04 10:04:31;;;;;;;18.00;7.65;;;;;;;17.16;100.00;99358.59;5091134;28;20063;-83
2023/09/04 10:06:59;;;;;;;10.02;7.43;;;;;;;17.14;100.00;99372.28;5074426;28;20029;-83
2023/09/04 10:09:27;;;;;;;10.20;7.25;;;;;;;17.08;100.00;99377.47;5072869;28;20024;-84
2023/09/04 10:12:05;;;;;;;11.05;6.90;;;;;;;17.13;100.00;99381.94;5075163;28;20028;-83
2023/09/04 10:14:39;;;;;;;24.23;8.07;;;;;;;17.04;100.00;99378.59;5076903;28;20079;-83
2023/09/04 10:17:08;;;;;;;8.18;7.38;;;;;;;16.91;100.00;99364.66;5075122;28;20106;-84
2023/09/04 10:19:37;;;;;;;11.70;8.10;;;;;;;16.97;100.00;99376.44;5074283;28;20055;-84
2023/09/04 10:22:07;;;;;;;14.73;9.63;;;;;;;16.96;100.00;99363.53;5072426;28;20081;-83
2023/09/04 10:24:59;;;;;;;14.57;8.47;;;;;;;17.10;100.00;99377.06;5085310;28;20466;-83
2023/09/04 10:27:30;;;;;;;12.70;8.80;;;;;;;17.05;100.00;99371.75;5070328;28;20114;-83
2023/09/04 10:30:18;;;;;;;10.10;7.90;;;;;;;16.92;100.00;99357.81;5071824;28;20523;-82
2023/09/04 10:32:44;;;;;;;13.75;12.02;;;;;;;16.79;100.00;99359.25;5071139;28;20024;-83
2023/09/04 10:35:10;;;;;;;10.90;9.82;;;;;;;16.80;100.00;99356.00;5075203;28;20439;-83
2023/09/04 10:37:37;;;;;;;12.13;9.23;;;;;;;16.83;100.00;99348.78;5070043;28;20048;-82
2023/09/04 10:40:06;;;;;;;9.48;8.48;;;;;;;16.90;100.00;99367.84;5068352;28;20140;-82
2023/09/04 10:42:33;;;;;;;10.40;9.00;;;;;;;17.07;100.00;99367.31;5074540;28;20040;-82
2023/09/04 10:45:14;;;;;;;9.80;8.50;;;;;;;16.87;100.00;99368.63;5085934;28;20147;-82
2023/09/04 10:47:48;;;;;;;10.30;8.43;;;;;;;16.87;100.00;99377.91;5076959;28;20463;-82
2023/09/04 10:50:30;;;;;;;10.73;8.35;;;;;;;16.85;100.00;99366.16;5084200;28;20055;-82
2023/09/04 10:52:57;;;;;;;8.57;7.80;;;;;;;16.90;100.00;99385.63;5072240;28;20471;-82
2023/09/04 10:55:24;;;;;;;11.52;8.80;;;;;;;17.01;100.00;99377.34;5071020;28;20429;-82
2023/09/04 10:58:00;;;;;;;8.98;8.07;;;;;;;16.82;100.00;99378.25;5071227;28;20039;-87
2023/09/04 11:00:32;;;;;;;11.68;7.82;;;;;;;17.00;100.00;99372.06;5080139;28;20090;-87
2023/09/04 11:03:14;;;;;;;10.27;8.30;;;;;;;17.06;100.00;99376.19;5081596;28;20454;-87
2023/09/04 11:06:05;;;;;;;9.02;8.13;;;;;;;17.06;100.00;99377.00;5082987;28;20055;-86
2023/09/04 11:08:31;;;;;;;;;;;;;;;17.05;100.00;99377.41;5080259;28;20035;-87
2023/09/04 11:11:02;;;;;;;11.23;8.77;;;;;;;17.01;100.00;99374.50;5074334;28;19950;-87
2023/09/04 11:13:27;;;;;;;10.82;8.30;;;;;;;17.14;100.00;99377.09;5077236;28;20028;-86
2023/09/04 11:15:56;;;;;;;9.68;7.80;;;;;;;17.17;100.00;99374.34;5084791;28;20034;-86
2023/09/04 11:18:22;;;;;;;9.82;8.07;;;;;;;17.09;100.00;99364.13;5084157;28;20043;-85
2023/09/04 11:20:54;;;;;;;8.90;8.00;;;;;;;17.17;100.00;99374.34;5083610;28;20032;-86
2023/09/04 11:23:23;;;;;;;11.40;8.63;;;;;;;17.14;100.00;99355.34;5081758;28;20041;-87
2023/09/04 11:25:49;;;;;;;12.32;7.28;;;;;;;17.04;100.00;99356.78;5084735;28;20043;-86
2023/09/04 11:28:17;;;;;;;11.38;8.38;;;;;;;17.03;100.00;99368.50;5084921;28;20024;-87
2023/09/04 11:30:42;;;;;;;11.57;8.95;;;;;;;16.86;100.00;99345.19;5081730;28;20032;-88